Time;durP1;ratioP1;P1;durP2;ratioP2;P2;SDS_P1;SDS_P2;PMS_P1;PMS_P2;Temp;Humidity;BMP_temperature;BMP_pressure;BME280_temperature;BME280_humidity;BME280_pressure;Samples;Min_cycle;Max_cycle;Signal;HPM_P1;HPM_P2
2023/04/01 00:02:03;;;;;;;0.40;0.40;;;;;;;;;;4995416;28;20050;-77
2023/04/01 00:04:28;;;;;;;8.07;7.43;;;;;;;;;;4979725;28;20034;-77
2023/04/01 00:06:54;;;;;;;0.30;0.30;;;;;;;;;;5013315;28;20034;-78
2023/04/01 00:09:19;;;;;;;0.40;0.40;;;;;;;;;;5013554;28;20112;-77
2023/04/01 00:11:45;;;;;;;0.10;0.10;;;;;;;;;;5013403;28;20037;-81
2023/04/01 00:14:11;;;;;;;1.70;1.60;;;;;;;;;;5013290;28;20053;-79
2023/04/01 00:16:36;;;;;;;0.10;0.10;;;;;;;;;;5011567;28;20018;-78
2023/04/01 00:19:02;;;;;;;0.10;0.10;;;;;;;;;;4993443;28;20088;-79
2023/04/01 00:21:27;;;;;;;0.10;0.10;;;;;;;;;;4995711;28;20033;-77
2023/04/01 00:23:53;;;;;;;0.10;0.10;;;;;;;;;;4986643;28;20478;-86
2023/04/01 00:26:20;;;;;;;0.10;0.10;;;;;;;;;;4982719;28;20025;-82
2023/04/01 00:28:46;;;;;;;0.10;0.10;;;;;;;;;;4994803;28;20066;-84
2023/04/01 00:31:13;;;;;;;0.20;0.20;;;;;;;;;;4973146;28;20370;-83
2023/04/01 00:33:39;;;;;;;0.10;0.10;;;;;;;;;;4995606;28;20069;-81
2023/04/01 00:36:15;;;;;;;4.90;1.48;;;;;;;;;;4993763;28;20490;-84
2023/04/01 00:38:42;;;;;;;0.10;0.10;;;;;;;;;;4995691;28;20394;-84
2023/04/01 00:41:08;;;;;;;5.28;4.85;;;;;;;;;;4986600;28;20370;-76
2023/04/01 00:43:34;;;;;;;0.17;0.17;;;;;;;;;;5012972;28;20521;-76
2023/04/01 00:45:59;;;;;;;0.45;0.45;;;;;;;;;;4979440;28;20133;-75
2023/04/01 00:48:33;;;;;;;0.28;0.28;;;;;;;;;;4995476;28;20030;-79
2023/04/01 00:51:05;;;;;;;0.10;0.10;;;;;;;;;;4991255;28;20076;-76
2023/04/01 00:53:31;;;;;;;0.20;0.20;;;;;;;;;;4960602;28;20046;-76
2023/04/01 00:55:59;;;;;;;2.08;1.98;;;;;;;;;;4985239;28;20080;-78
2023/04/01 00:58:27;;;;;;;0.20;0.20;;;;;;;;;;4986612;28;20033;-77
2023/04/01 01:00:53;;;;;;;0.63;0.63;;;;;;;;;;5014597;28;20037;-76
2023/04/01 01:03:19;;;;;;;8.15;6.22;;;;;;;;;;4998558;28;20038;-76
2023/04/01 01:05:57;;;;;;;0.20;0.20;;;;;;;;;;4999164;28;20354;-76
2023/04/01 01:08:37;;;;;;;0.10;0.10;;;;;;;;;;5015290;28;20370;-78
2023/04/01 01:11:02;;;;;;;;;;;;;;;;;;4999375;28;20042;-77
2023/04/01 01:13:34;;;;;;;0.17;0.17;;;;;;;;;;4998831;28;19913;-75
2023/04/01 01:16:22;;;;;;;16.15;1.85;;;;;;;;;;5015170;28;20046;-75
2023/04/01 01:18:53;;;;;;;0.17;0.17;;;;;;;;;;4998967;28;20038;-77
2023/04/01 01:21:55;;;;;;;0.22;0.22;;;;;;;;;;5016177;28;20045;-77
2023/04/01 01:24:30;;;;;;;0.10;0.10;;;;;;;;;;4936537;29;20130;-78
2023/04/01 01:27:02;;;;;;;0.10;0.10;;;;;;;;;;5004663;28;20046;-78
2023/04/01 01:29:41;;;;;;;0.10;0.10;;;;;;;;;;5016152;28;20100;-78
2023/04/01 01:32:25;;;;;;;0.60;0.60;;;;;;;;;;4998315;28;20168;-78
2023/04/01 01:34:58;;;;;;;0.10;0.10;;;;;;;;;;5016014;28;20034;-78
2023/04/01 01:37:25;;;;;;;0.10;0.10;;;;;;;;;;4982204;28;20084;-78
2023/04/01 01:39:56;;;;;;;0.20;0.20;;;;;;;;;;4998293;28;20038;-79
2023/04/01 01:42:24;;;;;;;0.17;0.17;;;;;;;;;;4998159;28;20481;-78
2023/04/01 01:44:52;;;;;;;0.17;0.17;;;;;;;;;;5014472;28;20034;-79
2023/04/01 01:47:19;;;;;;;0.10;0.10;;;;;;;;;;4998113;28;20998;-82
2023/04/01 01:49:45;;;;;;;0.13;0.13;;;;;;;;;;4982095;28;20053;-81
2023/04/01 01:52:11;;;;;;;0.10;0.10;;;;;;;;;;5015594;28;20038;-83
2023/04/01 01:54:46;;;;;;;0.10;0.10;;;;;;;;;;4997954;28;20061;-82
2023/04/01 01:57:12;;;;;;;0.10;0.10;;;;;;;;;;5015921;28;20045;-79
2023/04/01 01:59:42;;;;;;;0.30;0.30;;;;;;;;;;4997787;28;20049;-81
2023/04/01 02:02:12;;;;;;;0.20;0.20;;;;;;;;;;4998071;28;20120;-81
2023/04/01 02:04:39;;;;;;;0.15;0.15;;;;;;;;;;4997743;28;20091;-78
2023/04/01 02:07:10;;;;;;;0.10;0.10;;;;;;;;;;5015300;28;20492;-76
2023/04/01 02:09:37;;;;;;;0.10;0.10;;;;;;;;;;4997676;28;20034;-76
2023/04/01 02:12:05;;;;;;;0.40;0.40;;;;;;;;;;4997044;28;20091;-77
2023/04/01 02:14:51;;;;;;;0.10;0.10;;;;;;;;;;4997444;28;20065;-78
2023/04/01 02:17:22;;;;;;;0.15;0.15;;;;;;;;;;5015281;28;20038;-77
2023/04/01 02:19:50;;;;;;;0.10;0.10;;;;;;;;;;5015126;28;20048;-78
2023/04/01 02:22:18;;;;;;;0.10;0.10;;;;;;;;;;4997435;28;20038;-80
2023/04/01 02:24:45;;;;;;;0.20;0.20;;;;;;;;;;4997259;28;20028;-80
2023/04/01 02:27:11;;;;;;;0.40;0.40;;;;;;;;;;4997593;28;20030;-79
2023/04/01 02:29:36;;;;;;;0.40;0.40;;;;;;;;;;4997368;28;20468;-79
2023/04/01 02:32:07;;;;;;;0.10;0.10;;;;;;;;;;5014993;28;20042;-79
2023/04/01 02:34:33;;;;;;;0.20;0.20;;;;;;;;;;4997716;28;20497;-79
2023/04/01 02:36:58;;;;;;;0.10;0.10;;;;;;;;;;5014840;28;20105;-79
2023/04/01 02:39:26;;;;;;;0.13;0.13;;;;;;;;;;4996668;28;20100;-78
2023/04/01 02:41:52;;;;;;;0.10;0.10;;;;;;;;;;5015794;28;20476;-79
2023/04/01 02:44:17;;;;;;;0.15;0.15;;;;;;;;;;4998267;28;20401;-79
2023/04/01 02:46:43;;;;;;;1.65;0.57;;;;;;;;;;5015118;28;20033;-79
2023/04/01 02:49:08;;;;;;;0.25;0.25;;;;;;;;;;4997243;28;20046;-79
2023/04/01 02:51:34;;;;;;;0.22;0.22;;;;;;;;;;5014654;28;20037;-79
2023/04/01 02:54:01;;;;;;;0.20;0.20;;;;;;;;;;4996707;28;20049;-79
2023/04/01 02:56:27;;;;;;;0.32;0.32;;;;;;;;;;4997078;28;20168;-79
2023/04/01 02:58:53;;;;;;;0.13;0.13;;;;;;;;;;4980784;28;20137;-79
2023/04/01 03:01:19;;;;;;;0.10;0.10;;;;;;;;;;4997001;28;20037;-79
2023/04/01 03:03:44;;;;;;;0.32;0.32;;;;;;;;;;5009418;28;20029;-79
2023/04/01 03:06:11;;;;;;;0.17;0.17;;;;;;;;;;5010902;28;20046;-79
2023/04/01 03:08:37;;;;;;;0.10;0.10;;;;;;;;;;5010429;28;20037;-78
2023/04/01 03:11:03;;;;;;;0.10;0.10;;;;;;;;;;4992481;28;20033;-80
2023/04/01 03:13:31;;;;;;;0.32;0.32;;;;;;;;;;4992929;28;20385;-79
2023/04/01 03:15:56;;;;;;;0.10;0.10;;;;;;;;;;4992968;28;20092;-79
2023/04/01 03:18:22;;;;;;;2.58;1.85;;;;;;;;;;5010567;28;20072;-79
2023/04/01 03:20:47;;;;;;;0.35;0.35;;;;;;;;;;4993670;28;20084;-79
2023/04/01 03:23:13;;;;;;;0.20;0.20;;;;;;;;;;5018258;28;20034;-82
2023/04/01 03:25:40;;;;;;;0.10;0.10;;;;;;;;;;4996278;28;20038;-85
2023/04/01 03:28:05;;;;;;;1.45;1.35;;;;;;;;;;5013479;28;20038;-85
2023/04/01 03:30:31;;;;;;;0.10;0.10;;;;;;;;;;5013513;28;20125;-85
2023/04/01 03:32:57;;;;;;;0.10;0.10;;;;;;;;;;5006496;28;20036;-81
2023/04/01 03:35:23;;;;;;;0.10;0.10;;;;;;;;;;4976261;28;20374;-81
2023/04/01 03:37:50;;;;;;;3.53;1.85;;;;;;;;;;4976360;28;20029;-81
2023/04/01 03:40:15;;;;;;;0.45;0.45;;;;;;;;;;4992440;28;20500;-82
2023/04/01 03:42:41;;;;;;;0.32;0.32;;;;;;;;;;4992688;28;20381;-81
2023/04/01 03:45:08;;;;;;;0.30;0.30;;;;;;;;;;4992747;28;20037;-80
2023/04/01 03:47:34;;;;;;;0.45;0.45;;;;;;;;;;4992248;28;20040;-80
2023/04/01 03:50:00;;;;;;;0.15;0.15;;;;;;;;;;5010205;28;20046;-81
2023/04/01 03:52:25;;;;;;;0.10;0.10;;;;;;;;;;4992171;28;20030;-81
2023/04/01 03:54:51;;;;;;;0.10;0.10;;;;;;;;;;5009590;28;20511;-81
2023/04/01 03:57:16;;;;;;;0.10;0.10;;;;;;;;;;5009714;28;20432;-80
2023/04/01 03:59:42;;;;;;;1.40;1.33;;;;;;;;;;4992202;28;20117;-80
2023/04/01 04:02:07;;;;;;;3.13;0.95;;;;;;;;;;4991772;28;20120;-82
2023/04/01 04:04:33;;;;;;;0.20;0.20;;;;;;;;;;4991951;28;20040;-84
2023/04/01 04:06:58;;;;;;;0.30;0.30;;;;;;;;;;4992499;28;20129;-81
2023/04/01 04:09:25;;;;;;;0.20;0.20;;;;;;;;;;4991714;28;20584;-81
2023/04/01 04:11:50;;;;;;;0.13;0.13;;;;;;;;;;4991826;28;20132;-81
2023/04/01 04:14:16;;;;;;;0.77;0.77;;;;;;;;;;4976049;28;20038;-82
2023/04/01 04:16:42;;;;;;;1.05;0.80;;;;;;;;;;4992355;28;20041;-82
2023/04/01 04:19:09;;;;;;;2.85;2.65;;;;;;;;;;4991510;28;20034;-82
2023/04/01 04:21:34;;;;;;;0.20;0.20;;;;;;;;;;4992167;28;20037;-76
2023/04/01 04:24:00;;;;;;;0.10;0.10;;;;;;;;;;4992142;28;20096;-76
2023/04/01 04:26:28;;;;;;;0.10;0.10;;;;;;;;;;4992185;28;20042;-76
2023/04/01 04:28:59;;;;;;;0.20;0.20;;;;;;;;;;4991925;28;20029;-76
2023/04/01 04:31:25;;;;;;;1.95;1.85;;;;;;;;;;5009047;28;20117;-76
2023/04/01 04:33:53;;;;;;;0.20;0.20;;;;;;;;;;4989474;28;20125;-76
2023/04/01 04:36:19;;;;;;;0.20;0.20;;;;;;;;;;4991775;28;20137;-77
2023/04/01 04:38:46;;;;;;;0.95;0.95;;;;;;;;;;4995336;28;20110;-76
2023/04/01 04:41:16;;;;;;;0.10;0.10;;;;;;;;;;4994849;28;20492;-79
2023/04/01 04:43:52;;;;;;;0.15;0.15;;;;;;;;;;4995708;28;20033;-77
2023/04/01 04:46:18;;;;;;;0.20;0.20;;;;;;;;;;4994725;28;20038;-77
2023/04/01 04:48:45;;;;;;;0.20;0.20;;;;;;;;;;4995227;28;20034;-76
2023/04/01 04:51:18;;;;;;;0.20;0.20;;;;;;;;;;4994582;28;20038;-76
2023/04/01 04:53:44;;;;;;;0.10;0.10;;;;;;;;;;4999197;28;20053;-79
2023/04/01 04:56:09;;;;;;;0.10;0.10;;;;;;;;;;4998013;28;20038;-76
2023/04/01 04:58:42;;;;;;;0.10;0.10;;;;;;;;;;4994532;28;20025;-76
2023/04/01 05:01:14;;;;;;;0.10;0.10;;;;;;;;;;4993610;28;20026;-85
2023/04/01 05:03:40;;;;;;;0.30;0.30;;;;;;;;;;4994938;28;20034;-83
2023/04/01 05:06:06;;;;;;;0.10;0.10;;;;;;;;;;4994586;28;20400;-84
2023/04/01 05:08:32;;;;;;;0.17;0.17;;;;;;;;;;4995339;28;20053;-79
2023/04/01 05:10:58;;;;;;;0.20;0.20;;;;;;;;;;4977169;28;20034;-78
2023/04/01 05:13:24;;;;;;;0.10;0.10;;;;;;;;;;4994584;28;20046;-77
2023/04/01 05:15:50;;;;;;;0.10;0.10;;;;;;;;;;4994834;28;20076;-78
2023/04/01 05:18:16;;;;;;;0.10;0.10;;;;;;;;;;4993372;28;20068;-78
2023/04/01 05:20:49;;;;;;;0.20;0.20;;;;;;;;;;4992352;28;20498;-78
2023/04/01 05:23:14;;;;;;;0.10;0.10;;;;;;;;;;4978408;28;20046;-79
2023/04/01 05:25:40;;;;;;;0.10;0.10;;;;;;;;;;4978103;28;20558;-78
2023/04/01 05:28:06;;;;;;;0.10;0.10;;;;;;;;;;4994825;28;20095;-77
2023/04/01 05:30:31;;;;;;;0.10;0.10;;;;;;;;;;4993840;28;20513;-81
2023/04/01 05:33:00;;;;;;;3.00;1.17;;;;;;;;;;4993248;28;20046;-82
2023/04/01 05:35:26;;;;;;;0.20;0.20;;;;;;;;;;4995518;28;20029;-81
2023/04/01 05:37:51;;;;;;;0.20;0.20;;;;;;;;;;4994011;28;20092;-77
2023/04/01 05:40:17;;;;;;;1.27;1.27;;;;;;;;;;4992346;28;20041;-81
2023/04/01 05:42:43;;;;;;;0.10;0.10;;;;;;;;;;4978002;28;20040;-83
2023/04/01 05:45:11;;;;;;;0.10;0.10;;;;;;;;;;4994403;28;20041;-82
2023/04/01 05:47:59;;;;;;;0.10;0.10;;;;;;;;;;4990249;28;20048;-83
2023/04/01 05:50:27;;;;;;;0.20;0.20;;;;;;;;;;4978267;28;20037;-83
2023/04/01 05:52:54;;;;;;;0.10;0.10;;;;;;;;;;4994147;28;20030;-85
2023/04/01 05:55:20;;;;;;;0.20;0.20;;;;;;;;;;4994009;28;20038;-84
2023/04/01 05:57:48;;;;;;;0.10;0.10;;;;;;;;;;5012077;28;20062;-78
2023/04/01 06:00:14;;;;;;;0.10;0.10;;;;;;;;;;5011690;28;20030;-81
2023/04/01 06:02:41;;;;;;;0.43;0.43;;;;;;;;;;4978158;28;20119;-85
2023/04/01 06:05:13;;;;;;;0.32;0.32;;;;;;;;;;4978299;28;20057;-84
2023/04/01 06:07:38;;;;;;;0.15;0.15;;;;;;;;;;5011898;28;20485;-83
2023/04/01 06:10:11;;;;;;;0.10;0.10;;;;;;;;;;4994336;28;20038;-82
2023/04/01 06:12:44;;;;;;;3.30;1.75;;;;;;;;;;4978215;28;20080;-83
2023/04/01 06:15:15;;;;;;;0.20;0.20;;;;;;;;;;4977910;28;20038;-83
2023/04/01 06:17:47;;;;;;;0.88;0.88;;;;;;;;;;5011818;28;20428;-83
2023/04/01 06:20:29;;;;;;;1.73;1.48;;;;;;;;;;4993642;28;20041;-85
2023/04/01 06:22:58;;;;;;;0.10;0.10;;;;;;;;;;4995542;28;20034;-81
2023/04/01 06:25:38;;;;;;;0.10;0.10;;;;;;;;;;4993566;28;20137;-84
2023/04/01 06:28:16;;;;;;;0.35;0.22;;;;;;;;;;4977507;28;20040;-83
2023/04/01 06:30:43;;;;;;;0.20;0.20;;;;;;;;;;4993738;28;20057;-83
2023/04/01 06:33:14;;;;;;;0.20;0.20;;;;;;;;;;4993215;28;20046;-82
2023/04/01 06:35:58;;;;;;;0.80;0.80;;;;;;;;;;5010905;28;20485;-82
2023/04/01 06:38:33;;;;;;;2.40;2.30;;;;;;;;;;5011642;28;20041;-82
2023/04/01 06:41:11;;;;;;;0.20;0.20;;;;;;;;;;4993349;28;20424;-83
2023/04/01 06:44:00;;;;;;;0.20;0.20;;;;;;;;;;4993734;28;20026;-82
2023/04/01 06:46:47;;;;;;;0.20;0.20;;;;;;;;;;5010634;28;20049;-85
2023/04/01 06:49:41;;;;;;;0.10;0.10;;;;;;;;;;4980753;28;20111;-83
2023/04/01 06:52:45;;;;;;;0.20;0.20;;;;;;;;;;4950211;29;20041;-84
2023/04/01 06:55:47;;;;;;;0.20;0.20;;;;;;;;;;4893788;29;20049;-83
2023/04/01 06:58:37;;;;;;;0.20;0.20;;;;;;;;;;4954998;28;20404;-83
2023/04/01 07:01:05;;;;;;;0.30;0.30;;;;;;;;;;4991072;28;20042;-85
2023/04/01 07:03:32;;;;;;;0.20;0.20;;;;;;;;;;4984363;28;21493;-85
2023/04/01 07:06:03;;;;;;;0.20;0.20;;;;;;;;;;4998648;28;20037;-87
2023/04/01 07:08:31;;;;;;;0.30;0.30;;;;;;;;;;4998038;28;20091;-86
2023/04/01 07:11:04;;;;;;;0.28;0.28;;;;;;;;;;4999390;28;20040;-87
2023/04/01 07:13:59;;;;;;;0.75;0.75;;;;;;;;;;5028780;28;20085;-85
2023/04/01 07:16:27;;;;;;;9.57;2.92;;;;;;;;;;4995265;28;20034;-83
2023/04/01 07:18:56;;;;;;;0.10;0.10;;;;;;;;;;5010544;28;20033;-89
2023/04/01 07:21:28;;;;;;;0.22;0.22;;;;;;;;;;4978706;28;20034;-88
2023/04/01 07:24:00;;;;;;;0.95;0.50;;;;;;;;;;4977113;28;20025;-87
2023/04/01 07:26:38;;;;;;;0.30;0.30;;;;;;;;;;4992563;28;20034;-85
2023/04/01 07:29:15;;;;;;;5.57;1.58;;;;;;;;;;4992266;28;20208;-83
2023/04/01 07:31:47;;;;;;;4.78;1.05;;;;;;;;;;4977308;28;20065;-81
2023/04/01 07:34:23;;;;;;;5.25;0.85;;;;;;;;;;5009508;28;20041;-84
2023/04/01 07:36:51;;;;;;;9.85;2.30;;;;;;;;;;4957315;28;20493;-76
2023/04/01 07:39:17;;;;;;;6.93;2.40;;;;;;;;;;4983506;28;20056;-76
2023/04/01 07:42:14;;;;;;;11.15;2.17;;;;;;;;;;5004706;28;20559;-76
2023/04/01 07:44:58;;;;;;;6.13;2.42;;;;;;;;;;4980898;28;20500;-75
2023/04/01 07:47:33;;;;;;;1.10;0.57;;;;;;;;;;4972294;28;20033;-76
2023/04/01 07:50:05;;;;;;;2.67;1.65;;;;;;;;;;4990325;28;20042;-78
2023/04/01 07:53:06;;;;;;;1.52;0.55;;;;;;;;;;4983658;28;20030;-79
2023/04/01 07:55:44;;;;;;;0.30;0.30;;;;;;;;;;4920312;28;20057;-78
2023/04/01 07:58:30;;;;;;;5.03;1.20;;;;;;;;;;4988826;28;20038;-75
2023/04/01 08:00:59;;;;;;;1.17;0.65;;;;;;;;;;4956459;28;20054;-77
2023/04/01 08:03:47;;;;;;;14.43;1.42;;;;;;;;;;4988091;28;20449;-75
2023/04/01 08:06:17;;;;;;;2.40;1.02;;;;;;;;;;5011786;28;20033;-79
2023/04/01 08:08:51;;;;;;;0.20;0.20;;;;;;;;;;5012388;28;20029;-79
2023/04/01 08:11:54;;;;;;;7.00;1.05;;;;;;;;;;5007660;28;20100;-81
2023/04/01 08:14:47;;;;;;;7.45;2.85;;;;;;;;;;5004028;28;20237;-77
2023/04/01 08:17:57;;;;;;;5.20;1.52;;;;;;;;;;4963834;28;20088;-80
2023/04/01 08:20:35;;;;;;;0.30;0.30;;;;;;;;;;4993401;28;20038;-80
2023/04/01 08:23:04;;;;;;;5.07;0.95;;;;;;;;;;4987681;28;20034;-80
2023/04/01 08:25:37;;;;;;;1.40;0.90;;;;;;;;;;5002221;28;20117;-78
2023/04/01 08:28:10;;;;;;;4.47;1.08;;;;;;;;;;4985652;28;20030;-79
2023/04/01 08:31:12;;;;;;;5.25;2.15;;;;;;;;;;4986369;28;20040;-78
2023/04/01 08:33:42;;;;;;;0.57;0.50;;;;;;;;;;4917196;29;20039;-81
2023/04/01 08:36:11;;;;;;;;;;;;;;;;;;5006573;28;20045;-81
2023/04/01 08:39:04;;;;;;;4.28;1.08;;;;;;;;;;4998278;28;20043;-81
2023/04/01 08:41:33;;;;;;;7.72;1.60;;;;;;;;;;4973098;28;20148;-82
2023/04/01 08:44:30;;;;;;;10.32;1.25;;;;;;;;;;4993233;28;20572;-83
2023/04/01 08:47:15;;;;;;;0.40;0.40;;;;;;;;;;4976364;28;20416;-83
2023/04/01 08:50:10;;;;;;;1.70;1.02;;;;;;;;;;4999924;28;20120;-75
2023/04/01 08:53:03;;;;;;;2.17;2.08;;;;;;;;;;4988422;28;20136;-76
2023/04/01 08:56:05;;;;;;;2.72;1.13;;;;;;;;;;4995252;28;20034;-76
2023/04/01 08:58:30;;;;;;;2.15;1.00;;;;;;;;;;4932932;29;20048;-76
2023/04/01 09:01:14;;;;;;;8.80;2.15;;;;;;;;;;4985991;28;20069;-82
2023/04/01 09:04:04;;;;;;;6.03;2.60;;;;;;;;;;4996885;28;20445;-81
2023/04/01 09:06:49;;;;;;;7.47;1.67;;;;;;;;;;4993227;28;20040;-72
2023/04/01 09:09:33;;;;;;;3.85;1.40;;;;;;;;;;4994496;28;20032;-77
2023/04/01 09:12:23;;;;;;;7.85;1.80;;;;;;;;;;4979331;28;20041;-77
2023/04/01 09:14:53;;;;;;;18.33;2.00;;;;;;;;;;4996364;28;20041;-75
2023/04/01 09:17:24;;;;;;;11.88;2.78;;;;;;;;;;5011038;28;20046;-74
2023/04/01 09:19:58;;;;;;;7.13;2.78;;;;;;;;;;4997718;28;20037;-73
2023/04/01 09:22:33;;;;;;;7.22;1.48;;;;;;;;;;4992913;28;20068;-79
2023/04/01 09:25:02;;;;;;;4.07;1.05;;;;;;;;;;4995144;28;20042;-75
2023/04/01 09:27:28;;;;;;;0.98;0.73;;;;;;;;;;5010736;28;20026;-74
2023/04/01 09:30:07;;;;;;;8.13;2.35;;;;;;;;;;4989021;28;20044;-75
2023/04/01 09:32:33;;;;;;;5.38;1.45;;;;;;;;;;4984662;28;20041;-75
2023/04/01 09:35:14;;;;;;;6.50;1.83;;;;;;;;;;5000371;28;20767;-75
2023/04/01 09:37:49;;;;;;;7.00;1.55;;;;;;;;;;4999556;28;20129;-75
2023/04/01 09:40:19;;;;;;;0.82;0.60;;;;;;;;;;4983203;28;20117;-75
2023/04/01 09:42:48;;;;;;;;;;;;;;;;;;4984564;28;20073;-75
2023/04/01 09:45:34;;;;;;;4.20;1.45;;;;;;;;;;4986493;28;19918;-74
2023/04/01 09:48:11;;;;;;;0.20;0.20;;;;;;;;;;4991140;28;20064;-76
2023/04/01 09:50:40;;;;;;;15.65;3.45;;;;;;;;;;4998585;28;20054;-75
2023/04/01 09:53:06;;;;;;;;;;;;;;;;;;5005597;28;20033;-75
2023/04/01 09:55:35;;;;;;;7.43;1.47;;;;;;;;;;4999640;28;19918;-74
2023/04/01 09:58:18;;;;;;;0.32;0.32;;;;;;;;;;4994140;28;20049;-74
2023/04/01 10:01:31;;;;;;;8.57;1.98;;;;;;;;;;4983138;28;20037;-74
2023/04/01 10:04:13;;;;;;;1.17;0.30;;;;;;;;;;4981323;28;20035;-74
2023/04/01 10:06:58;;;;;;;5.68;0.65;;;;;;;;;;4990515;28;20043;-75
2023/04/01 10:09:25;;;;;;;5.97;2.10;;;;;;;;;;4973741;28;20035;-74
2023/04/01 10:11:54;;;;;;;1.95;0.73;;;;;;;;;;4974381;28;20053;-74
2023/04/01 10:14:20;;;;;;;;;;;;;;;;;;5000727;28;20231;-74
2023/04/01 10:16:57;;;;;;;1.98;1.00;;;;;;;;;;5001250;28;20008;-75
2023/04/01 10:19:35;;;;;;;4.55;1.45;;;;;;;;;;5016127;28;20050;-74
2023/04/01 10:22:10;;;;;;;4.90;1.60;;;;;;;;;;5002003;28;20113;-76
2023/04/01 10:28:12;;;;;;;7.03;1.63;;;;;;;;;;5006767;28;20052;-74
2023/04/01 10:31:00;;;;;;;3.63;0.85;;;;;;;;;;5001390;28;20497;-74
2023/04/01 10:33:40;;;;;;;4.95;0.95;;;;;;;;;;4997587;28;20038;-75
2023/04/01 10:36:09;;;;;;;10.45;1.60;;;;;;;;;;5001113;28;20030;-74
2023/04/01 10:38:50;;;;;;;0.97;0.77;;;;;;;;;;4984976;28;20112;-75
2023/04/01 10:41:34;;;;;;;7.18;1.67;;;;;;;;;;5001992;28;20026;-75
2023/04/01 10:44:29;;;;;;;1.00;0.50;;;;;;;;;;4992060;28;20069;-75
2023/04/01 10:47:15;;;;;;;2.72;0.47;;;;;;;;;;4999678;28;20485;-75
2023/04/01 10:49:47;;;;;;;5.13;0.80;;;;;;;;;;4983691;28;20038;-78
2023/04/01 10:52:32;;;;;;;4.03;0.75;;;;;;;;;;4984602;28;20362;-74
2023/04/01 10:55:19;;;;;;;7.47;1.13;;;;;;;;;;5000839;28;20045;-75
2023/04/01 10:58:06;;;;;;;3.00;1.75;;;;;;;;;;5001452;28;20559;-75
2023/04/01 11:01:16;;;;;;;7.60;1.50;;;;;;;;;;4972975;28;20069;-74
2023/04/01 11:04:13;;;;;;;3.47;0.60;;;;;;;;;;4981951;28;20045;-75
2023/04/01 11:07:26;;;;;;;10.50;2.60;;;;;;;;;;4971251;28;20893;-77
2023/04/01 11:09:55;;;;;;;4.63;1.38;;;;;;;;;;4996270;28;20101;-77
2023/04/01 11:12:24;;;;;;;9.38;2.08;;;;;;;;;;4997177;28;20409;-75
2023/04/01 11:15:08;;;;;;;1.33;1.08;;;;;;;;;;4999033;28;20121;-75
2023/04/01 11:17:53;;;;;;;4.22;1.33;;;;;;;;;;4983553;28;20026;-74
2023/04/01 11:20:33;;;;;;;7.47;1.45;;;;;;;;;;4973839;28;20037;-74
2023/04/01 11:23:02;;;;;;;8.70;1.58;;;;;;;;;;5008043;28;20045;-74
2023/04/01 11:25:37;;;;;;;4.97;1.70;;;;;;;;;;4980980;28;20030;-74
2023/04/01 11:28:24;;;;;;;5.53;1.73;;;;;;;;;;5004317;28;20655;-73
2023/04/01 11:30:49;;;;;;;11.50;2.13;;;;;;;;;;5002886;28;20041;-74
2023/04/01 11:33:24;;;;;;;0.60;0.60;;;;;;;;;;5001367;28;20038;-74
2023/04/01 11:35:59;;;;;;;5.10;1.65;;;;;;;;;;5001129;28;20044;-73
2023/04/01 11:38:43;;;;;;;3.50;1.42;;;;;;;;;;4983347;28;20107;-73
2023/04/01 11:41:57;;;;;;;3.85;1.30;;;;;;;;;;4960763;28;20397;-75
2023/04/01 11:44:35;;;;;;;2.38;1.20;;;;;;;;;;5009773;28;20046;-75
2023/04/01 11:47:12;;;;;;;5.28;1.17;;;;;;;;;;4994243;28;20034;-80
2023/04/01 11:49:44;;;;;;;11.90;2.97;;;;;;;;;;5008823;28;20033;-74
2023/04/01 11:52:17;;;;;;;;;;;;;;;;;;5009046;28;20099;-74
2023/04/01 11:55:00;;;;;;;4.13;3.03;;;;;;;;;;5010027;28;19917;-75
2023/04/01 11:57:29;;;;;;;7.38;2.10;;;;;;;;;;5008931;28;20042;-73
2023/04/01 12:00:15;;;;;;;6.43;1.48;;;;;;;;;;5009579;28;20128;-75
2023/04/01 12:02:59;;;;;;;1.95;1.10;;;;;;;;;;5010088;28;20072;-75
2023/04/01 12:05:43;;;;;;;18.67;4.10;;;;;;;;;;5008608;28;20050;-75
2023/04/01 12:08:33;;;;;;;16.05;1.95;;;;;;;;;;5008443;28;20056;-75
2023/04/01 12:11:08;;;;;;;10.40;2.95;;;;;;;;;;4982902;28;20113;-75
2023/04/01 12:13:34;;;;;;;29.00;2.22;;;;;;;;;;4982665;28;20455;-75
2023/04/01 12:16:05;;;;;;;9.15;2.45;;;;;;;;;;4993255;28;20121;-76
2023/04/01 12:18:40;;;;;;;17.73;1.15;;;;;;;;;;5010158;28;20049;-73
2023/04/01 12:21:08;;;;;;;2.10;0.95;;;;;;;;;;5004535;28;20058;-80
2023/04/01 12:23:34;;;;;;;6.90;1.42;;;;;;;;;;4990495;28;20041;-75
2023/04/01 12:26:11;;;;;;;8.52;2.63;;;;;;;;;;4999601;28;20447;-75
2023/04/01 12:28:40;;;;;;;5.47;1.65;;;;;;;;;;5003522;28;20037;-75
2023/04/01 12:31:12;;;;;;;6.20;2.20;;;;;;;;;;4987598;28;20034;-74
2023/04/01 12:33:38;;;;;;;9.52;2.17;;;;;;;;;;4983970;28;20047;-74
2023/04/01 12:36:14;;;;;;;17.23;2.35;;;;;;;;;;4998416;28;20049;-74
2023/04/01 12:38:52;;;;;;;9.93;1.75;;;;;;;;;;4990732;28;20034;-77
2023/04/01 12:41:33;;;;;;;15.25;2.65;;;;;;;;;;5005864;28;20044;-75
2023/04/01 12:44:17;;;;;;;12.05;2.22;;;;;;;;;;5000804;28;20096;-76
2023/04/01 12:46:52;;;;;;;13.93;2.65;;;;;;;;;;5004378;28;20040;-80
2023/04/01 12:49:33;;;;;;;12.30;2.40;;;;;;;;;;4991384;28;20579;-74
2023/04/01 12:52:07;;;;;;;12.27;3.92;;;;;;;;;;5009240;28;20529;-75
2023/04/01 12:54:45;;;;;;;17.77;3.53;;;;;;;;;;5009240;28;20393;-75
2023/04/01 12:57:10;;;;;;;7.28;2.13;;;;;;;;;;5010842;28;20080;-78
2023/04/01 12:59:52;;;;;;;8.27;2.38;;;;;;;;;;5013179;28;20038;-74
2023/04/01 13:02:26;;;;;;;7.28;1.63;;;;;;;;;;5011313;28;20037;-77
2023/04/01 13:05:11;;;;;;;4.25;2.08;;;;;;;;;;5003864;28;20037;-77
2023/04/01 13:07:40;;;;;;;7.65;2.28;;;;;;;;;;5003461;28;20083;-73
2023/04/01 13:10:24;;;;;;;8.55;2.00;;;;;;;;;;4985789;28;20105;-74
2023/04/01 13:12:56;;;;;;;3.90;1.00;;;;;;;;;;4989921;28;20033;-74
2023/04/01 13:15:27;;;;;;;6.18;1.33;;;;;;;;;;5012393;28;20026;-76
2023/04/01 13:18:12;;;;;;;7.40;1.35;;;;;;;;;;5012540;28;20044;-74
2023/04/01 13:20:47;;;;;;;16.23;1.90;;;;;;;;;;5012801;28;20474;-75
2023/04/01 13:23:18;;;;;;;14.73;2.90;;;;;;;;;;5012114;28;20088;-75
2023/04/01 13:25:44;;;;;;;11.20;2.92;;;;;;;;;;5012651;28;20034;-74
2023/04/01 13:28:21;;;;;;;11.70;2.83;;;;;;;;;;5012344;28;20541;-76
2023/04/01 13:30:47;;;;;;;5.22;2.00;;;;;;;;;;5012820;28;20029;-76
2023/04/01 13:33:32;;;;;;;12.27;2.05;;;;;;;;;;5011929;28;20038;-76
2023/04/01 13:36:07;;;;;;;9.02;1.63;;;;;;;;;;5010669;28;20038;-74
2023/04/01 13:38:42;;;;;;;1.98;1.08;;;;;;;;;;4996452;28;20460;-74
2023/04/01 13:41:26;;;;;;;5.03;1.10;;;;;;;;;;5014548;28;20473;-75
2023/04/01 13:43:55;;;;;;;8.70;2.58;;;;;;;;;;4996317;28;20038;-78
2023/04/01 13:46:20;;;;;;;4.93;1.55;;;;;;;;;;5008564;28;20041;-75
2023/04/01 13:48:58;;;;;;;6.78;1.33;;;;;;;;;;5010324;28;20026;-74
2023/04/01 13:51:42;;;;;;;6.00;2.00;;;;;;;;;;5010080;28;20091;-75
2023/04/01 13:54:14;;;;;;;4.57;1.58;;;;;;;;;;4992441;28;20168;-75
2023/04/01 13:56:55;;;;;;;1.35;0.77;;;;;;;;;;4989807;28;20104;-76
2023/04/01 13:59:20;;;;;;;5.20;0.80;;;;;;;;;;4993667;28;20157;-75
2023/04/01 14:02:01;;;;;;;10.60;1.30;;;;;;;;;;5008765;28;20117;-75
2023/04/01 14:04:41;;;;;;;6.97;1.63;;;;;;;;;;5010898;28;20064;-74
2023/04/01 14:07:20;;;;;;;9.50;2.30;;;;;;;;;;5002751;28;20555;-75
2023/04/01 14:09:53;;;;;;;8.77;2.20;;;;;;;;;;4992745;28;20034;-76
2023/04/01 14:12:21;;;;;;;4.80;1.77;;;;;;;;;;4990462;28;20413;-77
2023/04/01 14:14:56;;;;;;;5.03;1.52;;;;;;;;;;4989908;28;20031;-75
2023/04/01 14:17:29;;;;;;;4.35;1.88;;;;;;;;;;4990276;28;20493;-76
2023/04/01 14:20:04;;;;;;;8.13;1.30;;;;;;;;;;4989987;28;20034;-76
2023/04/01 14:22:35;;;;;;;7.00;2.50;;;;;;;;;;4990150;28;20050;-76
2023/04/01 14:25:20;;;;;;;14.07;3.22;;;;;;;;;;4989730;28;20030;-77
2023/04/01 14:27:51;;;;;;;0.80;0.68;;;;;;;;;;4972510;28;20097;-75
2023/04/01 14:30:36;;;;;;;4.35;0.63;;;;;;;;;;4989240;28;20027;-79
2023/04/01 14:33:01;;;;;;;5.80;1.77;;;;;;;;;;4971694;28;20046;-79
2023/04/01 14:35:44;;;;;;;29.05;19.60;;;;;;;;;;4989483;28;20066;-75
2023/04/01 14:38:25;;;;;;;4.90;1.20;;;;;;;;;;4989679;28;20065;-76
2023/04/01 14:41:09;;;;;;;6.93;1.35;;;;;;;;;;4989613;28;20097;-75
2023/04/01 14:43:47;;;;;;;6.15;1.35;;;;;;;;;;4971402;28;20038;-74
2023/04/01 14:46:32;;;;;;;3.30;1.40;;;;;;;;;;4971770;28;20027;-76
2023/04/01 14:49:01;;;;;;;5.88;1.33;;;;;;;;;;4971491;28;20437;-75
2023/04/01 14:51:37;;;;;;;6.43;1.80;;;;;;;;;;4971704;28;20034;-75
2023/04/01 14:54:25;;;;;;;7.03;4.45;;;;;;;;;;4988674;28;20034;-75
2023/04/01 14:57:03;;;;;;;11.95;2.30;;;;;;;;;;4980096;28;20049;-73
2023/04/01 14:59:29;;;;;;;4.63;0.77;;;;;;;;;;4986118;28;20087;-75
2023/04/01 15:01:58;;;;;;;15.98;1.23;;;;;;;;;;4984367;28;20038;-77
2023/04/01 15:04:42;;;;;;;9.48;2.47;;;;;;;;;;5008960;28;20644;-75
2023/04/01 15:07:07;;;;;;;3.72;1.85;;;;;;;;;;4990474;28;20038;-75
2023/04/01 15:09:33;;;;;;;3.13;0.98;;;;;;;;;;5008710;28;20413;-76
2023/04/01 15:12:01;;;;;;;1.75;0.82;;;;;;;;;;5003078;28;20405;-76
2023/04/01 15:14:27;;;;;;;2.45;1.55;;;;;;;;;;4996519;28;20038;-76
2023/04/01 15:16:55;;;;;;;5.28;0.70;;;;;;;;;;5001893;28;20121;-76
2023/04/01 15:19:24;;;;;;;9.05;0.98;;;;;;;;;;4999333;28;20029;-75
2023/04/01 15:21:55;;;;;;;3.87;1.07;;;;;;;;;;4997635;28;20033;-75
2023/04/01 15:24:26;;;;;;;0.60;0.60;;;;;;;;;;4989998;28;20265;-74
2023/04/01 15:26:54;;;;;;;1.10;0.52;;;;;;;;;;5007802;28;20034;-75